Time;durP1;ratioP1;P1;durP2;ratioP2;P2;SDS_P1;SDS_P2;PMS_P1;PMS_P2;Temp;Humidity;BMP_temperature;BMP_pressure;BME280_temperature;BME280_humidity;BME280_pressure;Samples;Min_cycle;Max_cycle;Signal;HPM_P1;HPM_P2
2021/03/15 00:00:45;;;;;;;6;4.7;;;;;;;2.27;100;94868.28;;;;
2021/03/15 00:01:49;;;;;;;6;4.7;;;;;;;2.27;100;94868.28;;;;
2021/03/15 00:02:51;;;;;;;6;4.7;;;;;;;2.27;100;94868.28;;;;
2021/03/15 00:03:52;;;;;;;6;4.7;;;;;;;2.27;100;94868.28;;;;
2021/03/15 00:04:52;;;;;;;6;4.7;;;;;;;2.27;100;94868.28;;;;
2021/03/15 00:05:53;;;;;;;6;4.7;;;;;;;2.27;100;94868.28;;;;
2021/03/15 00:06:53;;;;;;;6;4.7;;;;;;;2.27;100;94868.28;;;;
2021/03/15 00:07:54;;;;;;;6;4.7;;;;;;;2.27;100;94868.28;;;;
2021/03/15 00:08:55;;;;;;;6;4.7;;;;;;;2.27;100;94868.28;;;;
2021/03/15 00:09:55;;;;;;;5.55;4.749999;;;;;;;2.24;100;94864.65;;;;
2021/03/15 00:10:56;;;;;;;5.55;4.749999;;;;;;;2.24;100;94864.65;;;;
2021/03/15 00:11:57;;;;;;;5.55;4.749999;;;;;;;2.24;100;94864.65;;;;
2021/03/15 00:12:57;;;;;;;5.55;4.749999;;;;;;;2.24;100;94864.65;;;;
2021/03/15 00:13:58;;;;;;;5.55;4.749999;;;;;;;2.24;100;94864.65;;;;
2021/03/15 00:14:59;;;;;;;5.55;4.749999;;;;;;;2.24;100;94864.65;;;;
2021/03/15 00:16:00;;;;;;;5.55;4.749999;;;;;;;2.24;100;94864.65;;;;
2021/03/15 00:17:00;;;;;;;5.55;4.749999;;;;;;;2.24;100;94864.65;;;;
2021/03/15 00:18:01;;;;;;;5.55;4.749999;;;;;;;2.24;100;94864.65;;;;
2021/03/15 00:19:02;;;;;;;5.55;4.749999;;;;;;;2.24;100;94864.65;;;;
2021/03/15 00:20:03;;;;;;;5.55;4.749999;;;;;;;2.24;100;94864.65;;;;
2021/03/15 00:21:06;;;;;;;5.45;4.700001;;;;;;;2.18;100;94860.93;;;;
2021/03/15 00:22:06;;;;;;;5.45;4.700001;;;;;;;2.18;100;94860.93;;;;
2021/03/15 00:23:07;;;;;;;5.45;4.700001;;;;;;;2.18;100;94860.93;;;;
2021/03/15 00:24:07;;;;;;;5.45;4.700001;;;;;;;2.18;100;94860.93;;;;
2021/03/15 00:25:09;;;;;;;5.45;4.700001;;;;;;;2.18;100;94860.93;;;;
2021/03/15 00:26:11;;;;;;;5.45;4.700001;;;;;;;2.18;100;94860.93;;;;
2021/03/15 00:27:11;;;;;;;5.45;4.700001;;;;;;;2.18;100;94860.93;;;;
2021/03/15 00:28:12;;;;;;;5.45;4.700001;;;;;;;2.18;100;94860.93;;;;
2021/03/15 00:29:13;;;;;;;5.45;4.700001;;;;;;;2.18;100;94860.93;;;;
2021/03/15 00:30:14;;;;;;;5.45;4.700001;;;;;;;2.18;100;94860.93;;;;
2021/03/15 00:31:17;;;;;;;7.8;5.249999;;;;;;;2.25;100;94859.12;;;;
2021/03/15 00:32:18;;;;;;;7.8;5.249999;;;;;;;2.25;100;94859.12;;;;
2021/03/15 00:33:19;;;;;;;7.8;5.249999;;;;;;;2.25;100;94859.12;;;;
2021/03/15 00:34:20;;;;;;;7.8;5.249999;;;;;;;2.25;100;94859.12;;;;
2021/03/15 00:35:21;;;;;;;7.8;5.249999;;;;;;;2.25;100;94859.12;;;;
2021/03/15 00:36:21;;;;;;;7.8;5.249999;;;;;;;2.25;100;94859.12;;;;
2021/03/15 00:37:22;;;;;;;7.8;5.249999;;;;;;;2.25;100;94859.12;;;;
2021/03/15 00:38:22;;;;;;;7.8;5.249999;;;;;;;2.25;100;94859.12;;;;
2021/03/15 00:39:23;;;;;;;7.8;5.249999;;;;;;;2.25;100;94859.12;;;;
2021/03/15 00:40:24;;;;;;;7.8;5.249999;;;;;;;2.25;100;94859.12;;;;
2021/03/15 00:41:24;;;;;;;7.8;5.249999;;;;;;;2.25;100;94859.12;;;;
2021/03/15 00:42:25;;;;;;;7.7;5.2;;;;;;;2.27;100;94854.97;;;;
2021/03/15 00:43:25;;;;;;;7.7;5.2;;;;;;;2.27;100;94854.97;;;;
2021/03/15 00:44:26;;;;;;;7.7;5.2;;;;;;;2.27;100;94854.97;;;;
2021/03/15 00:45:27;;;;;;;7.7;5.2;;;;;;;2.27;100;94854.97;;;;
2021/03/15 00:46:28;;;;;;;7.7;5.2;;;;;;;2.27;100;94854.97;;;;
2021/03/15 00:47:28;;;;;;;7.7;5.2;;;;;;;2.27;100;94854.97;;;;
2021/03/15 00:48:29;;;;;;;7.7;5.2;;;;;;;2.27;100;94854.97;;;;
2021/03/15 00:49:29;;;;;;;7.7;5.2;;;;;;;2.27;100;94854.97;;;;
2021/03/15 00:50:30;;;;;;;7.7;5.2;;;;;;;2.27;100;94854.97;;;;
2021/03/15 00:51:36;;;;;;;7.7;5.2;;;;;;;2.27;100;94854.97;;;;
2021/03/15 00:52:36;;;;;;;8.400001;5.849999;;;;;;;2.24;100;94864.57;;;;
2021/03/15 00:53:37;;;;;;;8.400001;5.849999;;;;;;;2.24;100;94864.57;;;;
2021/03/15 00:54:37;;;;;;;8.400001;5.849999;;;;;;;2.24;100;94864.57;;;;
2021/03/15 00:55:38;;;;;;;8.400001;5.849999;;;;;;;2.24;100;94864.57;;;;
2021/03/15 00:56:39;;;;;;;8.400001;5.849999;;;;;;;2.24;100;94864.57;;;;
2021/03/15 00:57:40;;;;;;;8.400001;5.849999;;;;;;;2.24;100;94864.57;;;;
2021/03/15 00:58:40;;;;;;;8.400001;5.849999;;;;;;;2.24;100;94864.57;;;;
2021/03/15 00:59:41;;;;;;;8.400001;5.849999;;;;;;;2.24;100;94864.57;;;;
2021/03/15 01:00:41;;;;;;;8.400001;5.849999;;;;;;;2.24;100;94864.57;;;;
2021/03/15 01:01:42;;;;;;;8.400001;5.849999;;;;;;;2.24;100;94864.57;;;;
2021/03/15 01:02:43;;;;;;;8.400001;5.849999;;;;;;;2.24;100;94864.57;;;;
2021/03/15 01:03:44;;;;;;;9.249998;6.3;;;;;;;2.27;100;94851.36;;;;
2021/03/15 01:04:44;;;;;;;9.249998;6.3;;;;;;;2.27;100;94851.36;;;;
2021/03/15 01:05:45;;;;;;;9.249998;6.3;;;;;;;2.27;100;94851.36;;;;
2021/03/15 01:06:48;;;;;;;9.249998;6.3;;;;;;;2.27;100;94851.36;;;;
2021/03/15 01:07:49;;;;;;;9.249998;6.3;;;;;;;2.27;100;94851.36;;;;
2021/03/15 01:08:50;;;;;;;9.249998;6.3;;;;;;;2.27;100;94851.36;;;;
2021/03/15 01:09:51;;;;;;;9.249998;6.3;;;;;;;2.27;100;94851.36;;;;
2021/03/15 01:10:51;;;;;;;9.249998;6.3;;;;;;;2.27;100;94851.36;;;;
2021/03/15 01:11:52;;;;;;;9.249998;6.3;;;;;;;2.27;100;94851.36;;;;
2021/03/15 01:12:52;;;;;;;9.249998;6.3;;;;;;;2.27;100;94851.36;;;;
2021/03/15 01:13:53;;;;;;;8.200001;5.9;;;;;;;2.3;100;94843.91;;;;
2021/03/15 01:14:54;;;;;;;8.200001;5.9;;;;;;;2.3;100;94843.91;;;;
2021/03/15 01:15:54;;;;;;;8.200001;5.9;;;;;;;2.3;100;94843.91;;;;
2021/03/15 01:16:56;;;;;;;8.200001;5.9;;;;;;;2.3;100;94843.91;;;;
2021/03/15 01:17:56;;;;;;;8.200001;5.9;;;;;;;2.3;100;94843.91;;;;
2021/03/15 01:18:57;;;;;;;8.200001;5.9;;;;;;;2.3;100;94843.91;;;;
2021/03/15 01:19:59;;;;;;;8.200001;5.9;;;;;;;2.3;100;94843.91;;;;
2021/03/15 01:20:59;;;;;;;8.200001;5.9;;;;;;;2.3;100;94843.91;;;;
2021/03/15 01:22:00;;;;;;;8.200001;5.9;;;;;;;2.3;100;94843.91;;;;
2021/03/15 01:23:00;;;;;;;8.200001;5.9;;;;;;;2.3;100;94843.91;;;;
2021/03/15 01:24:01;;;;;;;8.200001;5.9;;;;;;;2.3;100;94843.91;;;;
2021/03/15 01:25:02;;;;;;;9;6.250001;;;;;;;2.34;100;94845.06;;;;
2021/03/15 01:26:04;;;;;;;9;6.250001;;;;;;;2.34;100;94845.06;;;;
2021/03/15 01:27:04;;;;;;;9;6.250001;;;;;;;2.34;100;94845.06;;;;
2021/03/15 01:28:06;;;;;;;9;6.250001;;;;;;;2.34;100;94845.06;;;;
2021/03/15 01:29:08;;;;;;;9;6.250001;;;;;;;2.34;100;94845.06;;;;
2021/03/15 01:30:09;;;;;;;9;6.250001;;;;;;;2.34;100;94845.06;;;;
2021/03/15 01:31:13;;;;;;;9;6.250001;;;;;;;2.34;100;94845.06;;;;
2021/03/15 01:32:13;;;;;;;9;6.250001;;;;;;;2.34;100;94845.06;;;;
2021/03/15 01:33:14;;;;;;;9;6.250001;;;;;;;2.34;100;94845.06;;;;
2021/03/15 01:34:15;;;;;;;9;6.250001;;;;;;;2.34;100;94845.06;;;;
2021/03/15 01:35:15;;;;;;;8.95;6.25;;;;;;;2.24;100;94844.19;;;;
2021/03/15 01:36:16;;;;;;;8.95;6.25;;;;;;;2.24;100;94844.19;;;;
2021/03/15 01:37:17;;;;;;;8.95;6.25;;;;;;;2.24;100;94844.19;;;;
2021/03/15 01:38:17;;;;;;;8.95;6.25;;;;;;;2.24;100;94844.19;;;;
2021/03/15 01:39:18;;;;;;;8.95;6.25;;;;;;;2.24;100;94844.19;;;;
2021/03/15 01:40:19;;;;;;;8.95;6.25;;;;;;;2.24;100;94844.19;;;;
2021/03/15 01:41:20;;;;;;;8.95;6.25;;;;;;;2.24;100;94844.19;;;;
2021/03/15 01:42:20;;;;;;;8.95;6.25;;;;;;;2.24;100;94844.19;;;;
2021/03/15 01:43:21;;;;;;;8.95;6.25;;;;;;;2.24;100;94844.19;;;;
2021/03/15 01:44:21;;;;;;;8.95;6.25;;;;;;;2.24;100;94844.19;;;;
2021/03/15 01:45:22;;;;;;;8.95;6.25;;;;;;;2.24;100;94844.19;;;;
2021/03/15 01:46:23;;;;;;;9.7;6.45;;;;;;;2.16;100;94836.33;;;;
2021/03/15 01:47:25;;;;;;;9.7;6.45;;;;;;;2.16;100;94836.33;;;;
2021/03/15 01:48:25;;;;;;;9.7;6.45;;;;;;;2.16;100;94836.33;;;;
2021/03/15 01:49:26;;;;;;;9.7;6.45;;;;;;;2.16;100;94836.33;;;;
2021/03/15 01:50:27;;;;;;;9.7;6.45;;;;;;;2.16;100;94836.33;;;;
2021/03/15 01:51:28;;;;;;;9.7;6.45;;;;;;;2.16;100;94836.33;;;;
2021/03/15 01:52:28;;;;;;;9.7;6.45;;;;;;;2.16;100;94836.33;;;;
2021/03/15 01:53:29;;;;;;;9.7;6.45;;;;;;;2.16;100;94836.33;;;;
2021/03/15 01:54:30;;;;;;;9.7;6.45;;;;;;;2.16;100;94836.33;;;;
2021/03/15 01:55:32;;;;;;;9.7;6.45;;;;;;;2.16;100;94836.33;;;;
2021/03/15 01:56:33;;;;;;;10.75;6.7;;;;;;;2.15;100;94820.97;;;;
2021/03/15 01:57:35;;;;;;;10.75;6.7;;;;;;;2.15;100;94820.97;;;;
2021/03/15 01:58:36;;;;;;;10.75;6.7;;;;;;;2.15;100;94820.97;;;;
2021/03/15 01:59:37;;;;;;;10.75;6.7;;;;;;;2.15;100;94820.97;;;;
2021/03/15 02:00:38;;;;;;;10.75;6.7;;;;;;;2.15;100;94820.97;;;;
2021/03/15 02:01:39;;;;;;;10.75;6.7;;;;;;;2.15;100;94820.97;;;;
2021/03/15 02:02:40;;;;;;;10.75;6.7;;;;;;;2.15;100;94820.97;;;;
2021/03/15 02:03:44;;;;;;;10.75;6.7;;;;;;;2.15;100;94820.97;;;;
2021/03/15 02:04:45;;;;;;;10.75;6.7;;;;;;;2.15;100;94820.97;;;;
2021/03/15 02:05:46;;;;;;;10.75;6.7;;;;;;;2.15;100;94820.97;;;;
2021/03/15 02:06:46;;;;;;;10.75;6.7;;;;;;;2.15;100;94820.97;;;;
2021/03/15 02:07:47;;;;;;;10.45;6.55;;;;;;;2.05;100;94804.96;;;;
2021/03/15 02:08:47;;;;;;;10.45;6.55;;;;;;;2.05;100;94804.96;;;;
2021/03/15 02:09:48;;;;;;;10.45;6.55;;;;;;;2.05;100;94804.96;;;;
2021/03/15 02:10:49;;;;;;;10.45;6.55;;;;;;;2.05;100;94804.96;;;;
2021/03/15 02:11:49;;;;;;;10.45;6.55;;;;;;;2.05;100;94804.96;;;;
2021/03/15 02:13:05;;;;;;;10.45;6.55;;;;;;;2.05;100;94804.96;;;;
2021/03/15 02:14:48;;;;;;;10.45;6.55;;;;;;;2.05;100;94804.96;;;;
2021/03/15 02:16:01;;;;;;;10.45;6.55;;;;;;;2.05;100;94804.96;;;;
2021/03/15 02:17:08;;;;;;;10.45;6.55;;;;;;;2.05;100;94804.96;;;;
2021/03/15 02:18:18;;;;;;;9.700001;6.500001;;;;;;;1.89;100;94801.25;;;;
2021/03/15 02:19:25;;;;;;;9.700001;6.500001;;;;;;;1.89;100;94801.25;;;;
2021/03/15 02:20:53;;;;;;;9.700001;6.500001;;;;;;;1.89;100;94801.25;;;;
2021/03/15 02:30:13;;;;;;;10;6.449999;;;;;;;1.71;100;94790.3;;;;
2021/03/15 02:31:32;;;;;;;10;6.449999;;;;;;;1.71;100;94790.3;;;;
2021/03/15 02:32:51;;;;;;;10;6.449999;;;;;;;1.71;100;94790.3;;;;
2021/03/15 02:38:06;;;;;;;10;6.449999;;;;;;;1.71;100;94790.3;;;;
2021/03/15 02:39:08;;;;;;;10.25;7.249999;;;;;;;1.5;100;94807.53;;;;
2021/03/15 02:40:11;;;;;;;10.25;7.249999;;;;;;;1.5;100;94807.53;;;;
2021/03/15 02:41:19;;;;;;;10.25;7.249999;;;;;;;1.5;100;94807.53;;;;
2021/03/15 02:42:22;;;;;;;10.25;7.249999;;;;;;;1.5;100;94807.53;;;;
2021/03/15 02:43:24;;;;;;;10.25;7.249999;;;;;;;1.5;100;94807.53;;;;
2021/03/15 02:44:29;;;;;;;10.25;7.249999;;;;;;;1.5;100;94807.53;;;;
2021/03/15 02:45:32;;;;;;;10.25;7.249999;;;;;;;1.5;100;94807.53;;;;
2021/03/15 02:46:36;;;;;;;10.25;7.249999;;;;;;;1.5;100;94807.53;;;;
2021/03/15 02:47:40;;;;;;;10.25;7.249999;;;;;;;1.5;100;94807.53;;;;
2021/03/15 02:48:44;;;;;;;10.25;7.249999;;;;;;;1.5;100;94807.53;;;;
2021/03/15 02:49:47;;;;;;;11.8;7.050001;;;;;;;1.73;100;94797.97;;;;
2021/03/15 02:50:53;;;;;;;11.8;7.050001;;;;;;;1.73;100;94797.97;;;;
2021/03/15 02:51:56;;;;;;;11.8;7.050001;;;;;;;1.73;100;94797.97;;;;
2021/03/15 02:52:59;;;;;;;11.8;7.050001;;;;;;;1.73;100;94797.97;;;;
2021/03/15 02:54:04;;;;;;;11.8;7.050001;;;;;;;1.73;100;94797.97;;;;
2021/03/15 02:55:07;;;;;;;11.8;7.050001;;;;;;;1.73;100;94797.97;;;;
2021/03/15 02:56:10;;;;;;;11.8;7.050001;;;;;;;1.73;100;94797.97;;;;
2021/03/15 02:57:16;;;;;;;11.8;7.050001;;;;;;;1.73;100;94797.97;;;;
2021/03/15 02:58:18;;;;;;;11.8;7.050001;;;;;;;1.73;100;94797.97;;;;
2021/03/15 02:59:20;;;;;;;11.8;7.050001;;;;;;;1.73;100;94797.97;;;;
2021/03/15 03:00:22;;;;;;;11.8;7.050001;;;;;;;1.73;100;94797.97;;;;
2021/03/15 03:01:25;;;;;;;9.099998;6.5;;;;;;;1.93;100;94786.95;;;;
2021/03/15 03:02:27;;;;;;;9.099998;6.5;;;;;;;1.93;100;94786.95;;;;
2021/03/15 03:03:28;;;;;;;9.099998;6.5;;;;;;;1.93;100;94786.95;;;;
2021/03/15 03:04:30;;;;;;;9.099998;6.5;;;;;;;1.93;100;94786.95;;;;
2021/03/15 03:05:31;;;;;;;9.099998;6.5;;;;;;;1.93;100;94786.95;;;;
2021/03/15 03:06:33;;;;;;;9.099998;6.5;;;;;;;1.93;100;94786.95;;;;
2021/03/15 03:07:36;;;;;;;9.099998;6.5;;;;;;;1.93;100;94786.95;;;;
2021/03/15 03:08:40;;;;;;;9.099998;6.5;;;;;;;1.93;100;94786.95;;;;
2021/03/15 03:09:44;;;;;;;9.099998;6.5;;;;;;;1.93;100;94786.95;;;;
2021/03/15 03:10:45;;;;;;;9.099998;6.5;;;;;;;1.93;100;94786.95;;;;
2021/03/15 03:11:47;;;;;;;7.35;6.250001;;;;;;;1.97;100;94789.12;;;;
2021/03/15 03:12:50;;;;;;;7.35;6.250001;;;;;;;1.97;100;94789.12;;;;
2021/03/15 03:13:52;;;;;;;7.35;6.250001;;;;;;;1.97;100;94789.12;;;;
2021/03/15 03:14:54;;;;;;;7.35;6.250001;;;;;;;1.97;100;94789.12;;;;
2021/03/15 03:15:55;;;;;;;7.35;6.250001;;;;;;;1.97;100;94789.12;;;;
2021/03/15 03:16:57;;;;;;;7.35;6.250001;;;;;;;1.97;100;94789.12;;;;
2021/03/15 03:18:01;;;;;;;7.35;6.250001;;;;;;;1.97;100;94789.12;;;;
2021/03/15 03:19:03;;;;;;;7.35;6.250001;;;;;;;1.97;100;94789.12;;;;
2021/03/15 03:20:06;;;;;;;7.35;6.250001;;;;;;;1.97;100;94789.12;;;;
2021/03/15 03:21:09;;;;;;;7.35;6.250001;;;;;;;1.97;100;94789.12;;;;
2021/03/15 03:22:10;;;;;;;7.6;5.349999;;;;;;;1.98;100;94787.18;;;;
2021/03/15 03:23:14;;;;;;;7.6;5.349999;;;;;;;1.98;100;94787.18;;;;
2021/03/15 03:24:17;;;;;;;7.6;5.349999;;;;;;;1.98;100;94787.18;;;;
2021/03/15 03:25:19;;;;;;;7.6;5.349999;;;;;;;1.98;100;94787.18;;;;
2021/03/15 03:26:22;;;;;;;7.6;5.349999;;;;;;;1.98;100;94787.18;;;;
2021/03/15 03:27:24;;;;;;;7.6;5.349999;;;;;;;1.98;100;94787.18;;;;
2021/03/15 03:28:25;;;;;;;7.6;5.349999;;;;;;;1.98;100;94787.18;;;;
2021/03/15 03:29:27;;;;;;;7.6;5.349999;;;;;;;1.98;100;94787.18;;;;
2021/03/15 03:30:29;;;;;;;7.6;5.349999;;;;;;;1.98;100;94787.18;;;;
2021/03/15 03:31:32;;;;;;;7.6;5.349999;;;;;;;1.98;100;94787.18;;;;
2021/03/15 03:32:36;;;;;;;6.75;5.1;;;;;;;1.99;100;94772.03;;;;
2021/03/15 03:33:40;;;;;;;6.75;5.1;;;;;;;1.99;100;94772.03;;;;
2021/03/15 03:34:42;;;;;;;6.75;5.1;;;;;;;1.99;100;94772.03;;;;
2021/03/15 03:35:43;;;;;;;6.75;5.1;;;;;;;1.99;100;94772.03;;;;
2021/03/15 03:36:44;;;;;;;6.75;5.1;;;;;;;1.99;100;94772.03;;;;
2021/03/15 03:37:44;;;;;;;6.75;5.1;;;;;;;1.99;100;94772.03;;;;
2021/03/15 03:38:45;;;;;;;6.75;5.1;;;;;;;1.99;100;94772.03;;;;
2021/03/15 03:39:46;;;;;;;6.75;5.1;;;;;;;1.99;100;94772.03;;;;
2021/03/15 03:40:47;;;;;;;6.75;5.1;;;;;;;1.99;100;94772.03;;;;
2021/03/15 03:41:47;;;;;;;6.75;5.1;;;;;;;1.99;100;94772.03;;;;
2021/03/15 03:42:48;;;;;;;6.75;5.1;;;;;;;1.99;100;94772.03;;;;
2021/03/15 03:43:48;;;;;;;9.299999;5.199999;;;;;;;2.03;100;94767.97;;;;
2021/03/15 03:44:49;;;;;;;9.299999;5.199999;;;;;;;2.03;100;94767.97;;;;
2021/03/15 03:45:50;;;;;;;9.299999;5.199999;;;;;;;2.03;100;94767.97;;;;
2021/03/15 03:46:51;;;;;;;9.299999;5.199999;;;;;;;2.03;100;94767.97;;;;
2021/03/15 03:47:51;;;;;;;9.299999;5.199999;;;;;;;2.03;100;94767.97;;;;
2021/03/15 03:48:52;;;;;;;9.299999;5.199999;;;;;;;2.03;100;94767.97;;;;
2021/03/15 03:49:53;;;;;;;9.299999;5.199999;;;;;;;2.03;100;94767.97;;;;
2021/03/15 03:50:56;;;;;;;9.299999;5.199999;;;;;;;2.03;100;94767.97;;;;
2021/03/15 03:51:58;;;;;;;9.299999;5.199999;;;;;;;2.03;100;94767.97;;;;
2021/03/15 03:53:01;;;;;;;9.299999;5.199999;;;;;;;2.03;100;94767.97;;;;
2021/03/15 03:54:07;;;;;;;6.350001;4.8;;;;;;;2.14;100;94763.31;;;;
2021/03/15 03:55:13;;;;;;;6.350001;4.8;;;;;;;2.14;100;94763.31;;;;
2021/03/15 03:56:19;;;;;;;6.350001;4.8;;;;;;;2.14;100;94763.31;;;;
2021/03/15 03:57:24;;;;;;;6.350001;4.8;;;;;;;2.14;100;94763.31;;;;
2021/03/15 03:58:28;;;;;;;6.350001;4.8;;;;;;;2.14;100;94763.31;;;;
2021/03/15 03:59:31;;;;;;;6.350001;4.8;;;;;;;2.14;100;94763.31;;;;
2021/03/15 04:00:35;;;;;;;6.350001;4.8;;;;;;;2.14;100;94763.31;;;;
2021/03/15 04:01:38;;;;;;;6.350001;4.8;;;;;;;2.14;100;94763.31;;;;
2021/03/15 04:02:42;;;;;;;6.350001;4.8;;;;;;;2.14;100;94763.31;;;;
2021/03/15 04:03:48;;;;;;;6.350001;4.8;;;;;;;2.14;100;94763.31;;;;
2021/03/15 04:04:53;;;;;;;8.549999;5.299999;;;;;;;2.16;100;94759.53;;;;
2021/03/15 04:05:59;;;;;;;8.549999;5.299999;;;;;;;2.16;100;94759.53;;;;
2021/03/15 04:07:03;;;;;;;8.549999;5.299999;;;;;;;2.16;100;94759.53;;;;
2021/03/15 04:08:06;;;;;;;8.549999;5.299999;;;;;;;2.16;100;94759.53;;;;
2021/03/15 04:09:10;;;;;;;8.549999;5.299999;;;;;;;2.16;100;94759.53;;;;
2021/03/15 04:10:13;;;;;;;8.549999;5.299999;;;;;;;2.16;100;94759.53;;;;
2021/03/15 04:11:14;;;;;;;8.549999;5.299999;;;;;;;2.16;100;94759.53;;;;
2021/03/15 04:12:18;;;;;;;8.549999;5.299999;;;;;;;2.16;100;94759.53;;;;
2021/03/15 04:13:21;;;;;;;8.549999;5.299999;;;;;;;2.16;100;94759.53;;;;
2021/03/15 04:14:25;;;;;;;8.549999;5.299999;;;;;;;2.16;100;94759.53;;;;
2021/03/15 04:15:28;;;;;;;8.2;5.45;;;;;;;2.11;100;94748.24;;;;
2021/03/15 04:16:31;;;;;;;8.2;5.45;;;;;;;2.11;100;94748.24;;;;
2021/03/15 04:17:35;;;;;;;8.2;5.45;;;;;;;2.11;100;94748.24;;;;
2021/03/15 04:18:39;;;;;;;8.2;5.45;;;;;;;2.11;100;94748.24;;;;
2021/03/15 04:19:46;;;;;;;8.2;5.45;;;;;;;2.11;100;94748.24;;;;
2021/03/15 04:20:51;;;;;;;8.2;5.45;;;;;;;2.11;100;94748.24;;;;
2021/03/15 04:21:56;;;;;;;8.2;5.45;;;;;;;2.11;100;94748.24;;;;
2021/03/15 04:23:02;;;;;;;8.2;5.45;;;;;;;2.11;100;94748.24;;;;
2021/03/15 04:24:10;;;;;;;8.2;5.45;;;;;;;2.11;100;94748.24;;;;
2021/03/15 04:25:12;;;;;;;8.2;5.45;;;;;;;2.11;100;94748.24;;;;
2021/03/15 04:26:14;;;;;;;7.2;5.25;;;;;;;2.02;100;94758.73;;;;
2021/03/15 04:27:15;;;;;;;7.2;5.25;;;;;;;2.02;100;94758.73;;;;
2021/03/15 04:28:16;;;;;;;7.2;5.25;;;;;;;2.02;100;94758.73;;;;
2021/03/15 04:29:18;;;;;;;7.2;5.25;;;;;;;2.02;100;94758.73;;;;
2021/03/15 04:30:19;;;;;;;7.2;5.25;;;;;;;2.02;100;94758.73;;;;
2021/03/15 04:31:22;;;;;;;7.2;5.25;;;;;;;2.02;100;94758.73;;;;
2021/03/15 04:32:23;;;;;;;7.2;5.25;;;;;;;2.02;100;94758.73;;;;
2021/03/15 04:33:25;;;;;;;7.2;5.25;;;;;;;2.02;100;94758.73;;;;
2021/03/15 04:34:26;;;;;;;7.2;5.25;;;;;;;2.02;100;94758.73;;;;
2021/03/15 04:35:30;;;;;;;7.2;5.25;;;;;;;2.02;100;94758.73;;;;
2021/03/15 04:36:34;;;;;;;7.049999;5.25;;;;;;;1.95;100;94749.4;;;;
2021/03/15 04:37:34;;;;;;;7.049999;5.25;;;;;;;1.95;100;94749.4;;;;
2021/03/15 04:38:37;;;;;;;7.049999;5.25;;;;;;;1.95;100;94749.4;;;;
2021/03/15 04:39:37;;;;;;;7.049999;5.25;;;;;;;1.95;100;94749.4;;;;
2021/03/15 04:40:39;;;;;;;7.049999;5.25;;;;;;;1.95;100;94749.4;;;;
2021/03/15 04:41:42;;;;;;;7.049999;5.25;;;;;;;1.95;100;94749.4;;;;
2021/03/15 04:42:42;;;;;;;7.049999;5.25;;;;;;;1.95;100;94749.4;;;;
2021/03/15 04:43:43;;;;;;;7.049999;5.25;;;;;;;1.95;100;94749.4;;;;
2021/03/15 04:44:47;;;;;;;7.049999;5.25;;;;;;;1.95;100;94749.4;;;;
2021/03/15 04:45:48;;;;;;;7.049999;5.25;;;;;;;1.95;100;94749.4;;;;
2021/03/15 04:46:49;;;;;;;7.049999;5.25;;;;;;;1.95;100;94749.4;;;;
2021/03/15 04:47:52;;;;;;;7.05;5.249999;;;;;;;1.93;100;94744.36;;;;
2021/03/15 04:48:52;;;;;;;7.05;5.249999;;;;;;;1.93;100;94744.36;;;;
2021/03/15 04:49:53;;;;;;;7.05;5.249999;;;;;;;1.93;100;94744.36;;;;
2021/03/15 04:50:55;;;;;;;7.05;5.249999;;;;;;;1.93;100;94744.36;;;;
2021/03/15 04:51:58;;;;;;;7.05;5.249999;;;;;;;1.93;100;94744.36;;;;
2021/03/15 04:53:00;;;;;;;7.05;5.249999;;;;;;;1.93;100;94744.36;;;;
2021/03/15 04:54:02;;;;;;;7.05;5.249999;;;;;;;1.93;100;94744.36;;;;
2021/03/15 04:55:05;;;;;;;7.05;5.249999;;;;;;;1.93;100;94744.36;;;;
2021/03/15 04:56:08;;;;;;;7.05;5.249999;;;;;;;1.93;100;94744.36;;;;
2021/03/15 04:57:10;;;;;;;7.05;5.249999;;;;;;;1.93;100;94744.36;;;;
2021/03/15 04:58:13;;;;;;;8.049999;5.849999;;;;;;;1.79;100;94735.58;;;;
2021/03/15 04:59:16;;;;;;;8.049999;5.849999;;;;;;;1.79;100;94735.58;;;;
2021/03/15 05:00:18;;;;;;;8.049999;5.849999;;;;;;;1.79;100;94735.58;;;;
2021/03/15 05:01:19;;;;;;;8.049999;5.849999;;;;;;;1.79;100;94735.58;;;;
2021/03/15 05:02:22;;;;;;;8.049999;5.849999;;;;;;;1.79;100;94735.58;;;;
2021/03/15 05:03:24;;;;;;;8.049999;5.849999;;;;;;;1.79;100;94735.58;;;;
2021/03/15 05:04:25;;;;;;;8.049999;5.849999;;;;;;;1.79;100;94735.58;;;;
2021/03/15 05:05:26;;;;;;;8.049999;5.849999;;;;;;;1.79;100;94735.58;;;;
2021/03/15 05:06:27;;;;;;;8.049999;5.849999;;;;;;;1.79;100;94735.58;;;;
2021/03/15 05:07:28;;;;;;;8.049999;5.849999;;;;;;;1.79;100;94735.58;;;;
2021/03/15 05:08:30;;;;;;;6.949999;5.4;;;;;;;1.53;100;94727.83;;;;
2021/03/15 05:09:36;;;;;;;6.949999;5.4;;;;;;;1.53;100;94727.83;;;;
2021/03/15 05:10:37;;;;;;;6.949999;5.4;;;;;;;1.53;100;94727.83;;;;
2021/03/15 05:11:39;;;;;;;6.949999;5.4;;;;;;;1.53;100;94727.83;;;;
2021/03/15 05:12:42;;;;;;;6.949999;5.4;;;;;;;1.53;100;94727.83;;;;
2021/03/15 05:13:43;;;;;;;6.949999;5.4;;;;;;;1.53;100;94727.83;;;;
2021/03/15 05:14:44;;;;;;;6.949999;5.4;;;;;;;1.53;100;94727.83;;;;
2021/03/15 05:15:46;;;;;;;6.949999;5.4;;;;;;;1.53;100;94727.83;;;;
2021/03/15 05:16:46;;;;;;;6.949999;5.4;;;;;;;1.53;100;94727.83;;;;
2021/03/15 05:17:48;;;;;;;6.949999;5.4;;;;;;;1.53;100;94727.83;;;;
2021/03/15 05:18:50;;;;;;;6.949999;5.4;;;;;;;1.53;100;94727.83;;;;
2021/03/15 05:19:52;;;;;;;6.7;5.2;;;;;;;1.23;100;94724.64;;;;
2021/03/15 05:20:54;;;;;;;6.7;5.2;;;;;;;1.23;100;94724.64;;;;
2021/03/15 05:21:55;;;;;;;6.7;5.2;;;;;;;1.23;100;94724.64;;;;
2021/03/15 05:22:56;;;;;;;6.7;5.2;;;;;;;1.23;100;94724.64;;;;
2021/03/15 05:23:58;;;;;;;6.7;5.2;;;;;;;1.23;100;94724.64;;;;
2021/03/15 05:24:59;;;;;;;6.7;5.2;;;;;;;1.23;100;94724.64;;;;
2021/03/15 05:26:01;;;;;;;6.7;5.2;;;;;;;1.23;100;94724.64;;;;
2021/03/15 05:27:02;;;;;;;6.7;5.2;;;;;;;1.23;100;94724.64;;;;
2021/03/15 05:28:04;;;;;;;6.7;5.2;;;;;;;1.23;100;94724.64;;;;
2021/03/15 05:29:07;;;;;;;6.7;5.2;;;;;;;1.23;100;94724.64;;;;
2021/03/15 05:30:11;;;;;;;9.549999;5.749999;;;;;;;1.02;100;94723.27;;;;
2021/03/15 05:31:16;;;;;;;9.549999;5.749999;;;;;;;1.02;100;94723.27;;;;
2021/03/15 05:32:18;;;;;;;9.549999;5.749999;;;;;;;1.02;100;94723.27;;;;
2021/03/15 05:33:22;;;;;;;9.549999;5.749999;;;;;;;1.02;100;94723.27;;;;
2021/03/15 05:34:25;;;;;;;9.549999;5.749999;;;;;;;1.02;100;94723.27;;;;
2021/03/15 05:35:27;;;;;;;9.549999;5.749999;;;;;;;1.02;100;94723.27;;;;
2021/03/15 05:36:29;;;;;;;9.549999;5.749999;;;;;;;1.02;100;94723.27;;;;
2021/03/15 05:37:31;;;;;;;9.549999;5.749999;;;;;;;1.02;100;94723.27;;;;
2021/03/15 05:38:32;;;;;;;9.549999;5.749999;;;;;;;1.02;100;94723.27;;;;
2021/03/15 05:39:33;;;;;;;9.549999;5.749999;;;;;;;1.02;100;94723.27;;;;
2021/03/15 05:40:33;;;;;;;8.399999;5.349999;;;;;;;1.01;100;94713.22;;;;
2021/03/15 05:41:37;;;;;;;8.399999;5.349999;;;;;;;1.01;100;94713.22;;;;
2021/03/15 05:42:52;;;;;;;8.399999;5.349999;;;;;;;1.01;100;94713.22;;;;
2021/03/15 05:44:09;;;;;;;8.399999;5.349999;;;;;;;1.01;100;94713.22;;;;
2021/03/15 05:45:20;;;;;;;8.399999;5.349999;;;;;;;1.01;100;94713.22;;;;
2021/03/15 05:46:26;;;;;;;8.399999;5.349999;;;;;;;1.01;100;94713.22;;;;
2021/03/15 05:47:49;;;;;;;8.399999;5.349999;;;;;;;1.01;100;94713.22;;;;
2021/03/15 05:49:22;;;;;;;8.399999;5.349999;;;;;;;1.01;100;94713.22;;;;
2021/03/15 05:50:47;;;;;;;8.399999;5.349999;;;;;;;1.01;100;94713.22;;;;
2021/03/15 05:52:00;;;;;;;8.050001;4.95;;;;;;;1.14;100;94704.44;;;;
2021/03/15 05:53:09;;;;;;;8.050001;4.95;;;;;;;1.14;100;94704.44;;;;
2021/03/15 05:55:39;;;;;;;8.050001;4.95;;;;;;;1.14;100;94704.44;;;;
2021/03/15 05:56:58;;;;;;;8.050001;4.95;;;;;;;1.14;100;94704.44;;;;
2021/03/15 05:58:13;;;;;;;8.050001;4.95;;;;;;;1.14;100;94704.44;;;;
2021/03/15 05:59:30;;;;;;;8.050001;4.95;;;;;;;1.14;100;94704.44;;;;
2021/03/15 06:00:51;;;;;;;8.050001;4.95;;;;;;;1.14;100;94704.44;;;;
2021/03/15 06:02:05;;;;;;;6.900001;4.95;;;;;;;1.41;100;94699.64;;;;
2021/03/15 06:03:33;;;;;;;6.900001;4.95;;;;;;;1.41;100;94699.64;;;;
2021/03/15 06:05:00;;;;;;;6.900001;4.95;;;;;;;1.41;100;94699.64;;;;
2021/03/15 06:06:18;;;;;;;6.900001;4.95;;;;;;;1.41;100;94699.64;;;;
2021/03/15 06:07:22;;;;;;;6.900001;4.95;;;;;;;1.41;100;94699.64;;;;
2021/03/15 06:08:26;;;;;;;6.900001;4.95;;;;;;;1.41;100;94699.64;;;;
2021/03/15 06:09:30;;;;;;;6.900001;4.95;;;;;;;1.41;100;94699.64;;;;
2021/03/15 06:10:37;;;;;;;6.900001;4.95;;;;;;;1.41;100;94699.64;;;;
2021/03/15 06:11:50;;;;;;;6.900001;4.95;;;;;;;1.41;100;94699.64;;;;
2021/03/15 06:12:58;;;;;;;6.75;4.95;;;;;;;1.71;100;94687.86;;;;
2021/03/15 06:14:03;;;;;;;6.75;4.95;;;;;;;1.71;100;94687.86;;;;
2021/03/15 06:15:06;;;;;;;6.75;4.95;;;;;;;1.71;100;94687.86;;;;
2021/03/15 06:16:07;;;;;;;6.75;4.95;;;;;;;1.71;100;94687.86;;;;
2021/03/15 06:17:10;;;;;;;6.75;4.95;;;;;;;1.71;100;94687.86;;;;
2021/03/15 06:18:12;;;;;;;6.75;4.95;;;;;;;1.71;100;94687.86;;;;
2021/03/15 06:19:14;;;;;;;6.75;4.95;;;;;;;1.71;100;94687.86;;;;
2021/03/15 06:20:16;;;;;;;6.75;4.95;;;;;;;1.71;100;94687.86;;;;
2021/03/15 06:21:17;;;;;;;6.75;4.95;;;;;;;1.71;100;94687.86;;;;
2021/03/15 06:22:18;;;;;;;6.75;4.95;;;;;;;1.71;100;94687.86;;;;
2021/03/15 06:23:20;;;;;;;8;4.65;;;;;;;1.93;100;94684.47;;;;
2021/03/15 06:24:21;;;;;;;8;4.65;;;;;;;1.93;100;94684.47;;;;
2021/03/15 06:25:23;;;;;;;8;4.65;;;;;;;1.93;100;94684.47;;;;
2021/03/15 06:26:23;;;;;;;8;4.65;;;;;;;1.93;100;94684.47;;;;
2021/03/15 06:27:24;;;;;;;8;4.65;;;;;;;1.93;100;94684.47;;;;
2021/03/15 06:28:27;;;;;;;8;4.65;;;;;;;1.93;100;94684.47;;;;
2021/03/15 06:29:28;;;;;;;8;4.65;;;;;;;1.93;100;94684.47;;;;